Time;durP1;ratioP1;P1;durP2;ratioP2;P2;SDS_P1;SDS_P2;PMS_P1;PMS_P2;Temp;Humidity;BMP_temperature;BMP_pressure;BME280_temperature;BME280_humidity;BME280_pressure;Samples;Min_cycle;Max_cycle;Signal;HPM_P1;HPM_P2
2022/10/29 00:00:21;;;;;;;7.10;4.93;;;;;;;23.88;46.90;97769.19;5134910;27;20027;-35
2022/10/29 00:02:46;;;;;;;7.38;4.70;;;;;;;23.92;46.45;97767.75;5134582;27;20034;-35
2022/10/29 00:05:12;;;;;;;11.65;5.00;;;;;;;23.91;46.74;97769.00;5134751;27;20067;-34
2022/10/29 00:07:37;;;;;;;8.57;4.50;;;;;;;23.88;46.81;97766.41;5134702;27;20023;-34
2022/10/29 00:10:03;;;;;;;15.48;5.25;;;;;;;23.88;46.82;97771.94;5134392;27;20019;-35
2022/10/29 00:12:29;;;;;;;5.93;4.93;;;;;;;23.88;46.76;97766.41;5134333;27;20023;-34
2022/10/29 00:14:54;;;;;;;7.63;4.60;;;;;;;23.87;46.50;97771.19;5134409;28;20485;-34
2022/10/29 00:17:20;;;;;;;5.80;4.47;;;;;;;23.84;46.45;97765.88;5152098;27;20022;-34
2022/10/29 00:19:45;;;;;;;8.77;4.15;;;;;;;23.92;46.19;97772.53;5154529;27;20018;-36
2022/10/29 00:22:10;;;;;;;10.25;5.10;;;;;;;23.89;46.46;97768.69;5155120;27;20027;-34
2022/10/29 00:24:36;;;;;;;7.90;4.45;;;;;;;23.86;46.51;97769.66;5155298;27;20459;-36
2022/10/29 00:27:02;;;;;;;7.35;4.88;;;;;;;23.85;46.67;97768.16;5154840;27;20470;-34
2022/10/29 00:29:27;;;;;;;6.50;4.35;;;;;;;23.87;46.53;97759.34;5155025;27;20015;-34
2022/10/29 00:31:53;;;;;;;7.50;4.47;;;;;;;23.84;46.36;97761.09;5154934;27;20493;-35
2022/10/29 00:34:18;;;;;;;9.25;4.72;;;;;;;23.84;46.27;97761.09;5155061;27;20075;-34
2022/10/29 00:36:43;;;;;;;6.82;4.60;;;;;;;23.88;46.62;97758.88;5154989;27;20027;-34
2022/10/29 00:39:13;;;;;;;11.50;5.05;;;;;;;23.88;46.47;97756.09;5136410;27;20037;-34
2022/10/29 00:41:39;;;;;;;9.35;4.43;;;;;;;23.85;46.57;97751.53;5154930;27;20473;-35
2022/10/29 00:44:13;;;;;;;7.28;4.60;;;;;;;23.85;46.51;97750.78;5154759;27;20023;-34
2022/10/29 00:46:42;;;;;;;7.05;4.72;;;;;;;23.83;46.72;97748.47;5155109;27;20063;-35
2022/10/29 00:49:09;;;;;;;9.68;5.00;;;;;;;23.83;46.48;97745.72;5155245;27;20098;-35
2022/10/29 00:51:36;;;;;;;9.13;5.40;;;;;;;23.82;46.61;97751.72;5155118;27;20075;-34
2022/10/29 00:54:05;;;;;;;8.70;4.82;;;;;;;23.80;46.55;97751.44;5154379;27;20122;-36
2022/10/29 00:56:34;;;;;;;10.73;4.97;;;;;;;23.84;46.21;97740.94;5154801;27;20046;-35
2022/10/29 00:59:00;;;;;;;7.25;4.97;;;;;;;23.84;46.16;97750.00;5154853;27;20149;-34
2022/10/29 01:01:26;;;;;;;8.25;4.43;;;;;;;23.79;46.65;97747.16;5154720;27;20030;-34
2022/10/29 01:03:53;;;;;;;8.32;4.50;;;;;;;23.88;46.14;97749.78;5154723;27;20394;-34
2022/10/29 01:06:18;;;;;;;8.73;4.90;;;;;;;23.80;46.13;97738.38;5154724;27;20015;-34
2022/10/29 01:08:44;;;;;;;7.90;4.35;;;;;;;23.77;46.41;97750.41;5154498;27;20034;-34
2022/10/29 01:11:40;;;;;;;7.82;4.18;;;;;;;23.71;46.42;97744.03;5154536;27;20458;-34
2022/10/29 01:14:11;;;;;;;9.30;5.05;;;;;;;23.82;46.24;97740.66;5154957;27;20105;-34
2022/10/29 01:17:02;;;;;;;9.15;4.10;;;;;;;23.78;46.25;97743.63;5136233;27;20054;-34
2022/10/29 01:20:19;;;;;;;8.57;4.65;;;;;;;23.80;46.03;97743.91;5136014;27;20050;-36
2022/10/29 01:23:15;;;;;;;8.50;4.30;;;;;;;23.82;45.80;97735.88;5097289;27;20039;-34
2022/10/29 01:25:55;;;;;;;8.18;4.47;;;;;;;23.81;45.64;97736.34;5154461;27;20033;-34
2022/10/29 01:28:30;;;;;;;10.38;4.32;;;;;;;23.84;45.97;97740.94;5154527;27;20023;-35
2022/10/29 01:31:04;;;;;;;7.43;4.32;;;;;;;23.79;45.69;97736.06;5155731;27;20034;-34
2022/10/29 01:33:51;;;;;;;7.70;4.30;;;;;;;23.73;46.02;97730.47;5158070;27;20019;-35
2022/10/29 01:36:23;;;;;;;9.23;4.82;;;;;;;23.78;45.85;97735.31;5139293;27;20378;-34
2022/10/29 01:38:54;;;;;;;7.80;4.32;;;;;;;23.78;45.65;97721.47;5158428;27;20114;-36
2022/10/29 01:41:47;;;;;;;6.13;4.32;;;;;;;23.79;45.50;97720.22;5158007;27;20067;-35
2022/10/29 01:44:37;;;;;;;8.75;4.30;;;;;;;23.75;45.32;97725.19;5157792;27;20042;-34
2022/10/29 01:47:04;;;;;;;9.02;4.60;;;;;;;23.78;45.67;97721.47;5157831;27;20026;-34
2022/10/29 01:49:38;;;;;;;6.43;3.80;;;;;;;23.80;45.46;97718.97;5157961;27;20022;-35
2022/10/29 01:52:06;;;;;;;7.32;4.53;;;;;;;23.80;45.53;97718.22;5157934;27;20094;-34
2022/10/29 01:54:32;;;;;;;5.53;3.92;;;;;;;23.72;45.61;97720.63;5157384;27;20039;-34
2022/10/29 01:56:58;;;;;;;7.18;4.05;;;;;;;23.72;45.47;97715.09;5157569;27;20371;-34
2022/10/29 01:59:30;;;;;;;7.00;4.15;;;;;;;23.77;45.56;97711.63;5157567;27;20027;-36
2022/10/29 02:02:25;;;;;;;10.23;4.95;;;;;;;23.74;45.42;97703.53;5157530;27;20455;-34
2022/10/29 02:05:26;;;;;;;7.95;5.03;;;;;;;23.70;45.38;97705.75;5157314;27;20122;-34
2022/10/29 02:08:39;;;;;;;8.38;4.05;;;;;;;23.67;45.60;97704.69;5124129;27;20039;-35
2022/10/29 02:11:26;;;;;;;5.72;3.60;;;;;;;23.70;45.33;97706.50;5134706;27;20054;-36
2022/10/29 02:14:22;;;;;;;8.48;4.10;;;;;;;23.72;45.02;97698.47;5157350;27;20058;-37
2022/10/29 02:16:48;;;;;;;7.68;4.57;;;;;;;23.72;45.10;97703.25;5120657;27;20091;-36
2022/10/29 02:19:14;;;;;;;6.07;3.92;;;;;;;23.71;44.95;97696.94;5157128;27;20026;-34
2022/10/29 02:21:41;;;;;;;6.68;3.83;;;;;;;23.71;45.08;97702.50;5157142;27;20033;-36
2022/10/29 02:24:07;;;;;;;7.18;4.18;;;;;;;23.71;44.90;97701.72;5138518;27;20156;-35
2022/10/29 02:26:32;;;;;;;7.25;3.95;;;;;;;23.78;44.59;97698.53;5157086;27;20011;-34
2022/10/29 02:28:58;;;;;;;7.45;3.80;;;;;;;23.74;44.54;97701.50;5156962;27;20022;-34
2022/10/29 02:31:23;;;;;;;6.20;4.25;;;;;;;23.69;44.63;97693.91;5157421;27;20018;-35
2022/10/29 02:33:49;;;;;;;6.25;3.67;;;;;;;23.64;44.44;97687.03;5157015;27;20045;-34
2022/10/29 02:36:15;;;;;;;8.95;3.90;;;;;;;23.63;44.55;97695.81;5156706;27;20023;-35
2022/10/29 02:38:40;;;;;;;12.13;4.13;;;;;;;23.70;44.80;97689.13;5156757;27;20037;-35
2022/10/29 02:41:06;;;;;;;6.38;3.28;;;;;;;23.69;44.25;97688.34;5156611;27;20434;-35
2022/10/29 02:43:31;;;;;;;7.22;3.80;;;;;;;23.69;44.52;97688.34;5138315;27;20545;-34
2022/10/29 02:46:19;;;;;;;5.68;3.45;;;;;;;23.64;44.19;97686.25;5156400;27;20099;-34
2022/10/29 02:48:45;;;;;;;5.72;3.33;;;;;;;23.67;44.33;97690.84;5156671;27;20356;-35
2022/10/29 02:51:11;;;;;;;6.25;3.60;;;;;;;23.64;43.92;97686.25;5156657;27;20056;-34
2022/10/29 02:53:37;;;;;;;8.57;4.05;;;;;;;23.57;44.39;97681.91;5156709;27;20097;-34
2022/10/29 02:56:04;;;;;;;5.68;3.55;;;;;;;23.58;44.32;97677.13;5115378;28;20031;-37
2022/10/29 02:58:29;;;;;;;6.53;3.40;;;;;;;23.62;44.30;97683.22;5115114;28;20030;-34
2022/10/29 03:00:55;;;;;;;7.03;3.80;;;;;;;23.62;44.33;97680.44;5115084;28;20114;-34
2022/10/29 03:03:21;;;;;;;5.68;3.67;;;;;;;23.62;43.75;97685.97;5115203;28;20036;-34
2022/10/29 03:05:46;;;;;;;6.97;3.65;;;;;;;23.63;43.93;97674.44;5114905;28;20098;-34
2022/10/29 03:08:12;;;;;;;7.85;3.63;;;;;;;23.56;43.67;97677.63;5115062;28;20085;-34
2022/10/29 03:10:37;;;;;;;4.95;3.50;;;;;;;23.58;43.65;97675.13;5114957;28;20020;-34
2022/10/29 03:13:03;;;;;;;9.35;3.70;;;;;;;23.59;43.95;97673.13;5114937;28;20054;-34
2022/10/29 03:15:28;;;;;;;5.75;3.58;;;;;;;23.53;44.26;97680.59;5113341;28;20025;-34
2022/10/29 03:17:54;;;;;;;7.07;3.50;;;;;;;23.58;43.87;97688.22;5114862;28;20023;-34
2022/10/29 03:20:19;;;;;;;6.93;3.78;;;;;;;23.56;43.50;97683.16;5115027;28;20447;-35
2022/10/29 03:22:45;;;;;;;6.63;3.42;;;;;;;23.60;43.32;97680.94;5114915;28;20050;-34
2022/10/29 03:25:11;;;;;;;6.38;3.22;;;;;;;23.56;43.70;97677.63;5114728;28;20043;-35
2022/10/29 03:27:41;;;;;;;7.05;3.78;;;;;;;23.52;43.90;97679.81;5114742;28;20084;-35
2022/10/29 03:30:08;;;;;;;6.07;3.53;;;;;;;23.53;43.47;97688.88;5114517;28;20027;-35
2022/10/29 03:32:34;;;;;;;6.13;3.70;;;;;;;23.52;43.60;97687.38;5114525;28;20398;-38
2022/10/29 03:34:59;;;;;;;6.03;3.42;;;;;;;23.58;43.04;97688.22;5114486;28;20024;-35
2022/10/29 03:37:25;;;;;;;6.55;3.45;;;;;;;23.53;43.02;97689.66;5114619;28;20031;-34
2022/10/29 03:39:50;;;;;;;5.75;3.30;;;;;;;23.53;43.02;97688.88;5114470;28;20020;-35
2022/10/29 03:42:16;;;;;;;4.88;3.50;;;;;;;23.50;43.25;97690.59;5114507;28;20187;-34
2022/10/29 03:44:41;;;;;;;9.27;3.78;;;;;;;23.51;42.67;97694.13;5114432;28;20020;-35
2022/10/29 03:47:08;;;;;;;7.93;3.17;;;;;;;23.50;43.07;97689.81;5114572;28;20364;-34
2022/10/29 03:49:33;;;;;;;10.40;4.07;;;;;;;23.51;43.18;97692.13;5114226;28;20384;-34
2022/10/29 03:51:58;;;;;;;6.38;3.25;;;;;;;23.53;42.82;97697.19;5114327;28;20034;-34
2022/10/29 03:54:24;;;;;;;6.00;3.33;;;;;;;23.53;42.67;97697.97;5126778;27;20050;-34
2022/10/29 03:56:49;;;;;;;5.55;3.30;;;;;;;23.49;42.96;97691.09;5155400;27;20021;-35
2022/10/29 03:59:15;;;;;;;6.82;2.90;;;;;;;23.50;42.92;97698.91;5155302;27;20022;-34
2022/10/29 04:01:40;;;;;;;8.02;3.58;;;;;;;23.49;42.02;97699.41;5155416;27;20035;-35
2022/10/29 04:04:06;;;;;;;5.38;3.22;;;;;;;23.49;42.54;97697.34;5155161;27;20015;-34
2022/10/29 04:06:31;;;;;;;6.55;3.53;;;;;;;23.52;42.15;97695.66;5155471;27;20038;-35
2022/10/29 04:08:57;;;;;;;8.30;3.40;;;;;;;23.49;42.40;97696.63;5155448;27;20022;-34
2022/10/29 04:11:22;;;;;;;6.65;3.20;;;;;;;23.46;42.23;97703.13;5155450;27;20488;-34
2022/10/29 04:13:51;;;;;;;6.50;3.00;;;;;;;23.46;42.63;97706.66;5155139;27;20537;-34
2022/10/29 04:16:17;;;;;;;5.53;3.20;;;;;;;23.38;42.26;97701.97;5155269;27;20023;-34
2022/10/29 04:18:42;;;;;;;6.25;2.97;;;;;;;23.46;41.93;97708.66;5155258;27;20346;-35
2022/10/29 04:21:08;;;;;;;5.40;3.17;;;;;;;23.37;42.13;97706.75;5155068;27;20087;-35
2022/10/29 04:23:33;;;;;;;4.45;2.95;;;;;;;23.44;42.33;97711.13;5154995;27;20367;-34
2022/10/29 04:25:59;;;;;;;5.68;3.05;;;;;;;23.49;41.49;97710.47;5155062;27;20040;-35
2022/10/29 04:28:25;;;;;;;6.05;3.17;;;;;;;23.47;41.79;97715.72;5155160;27;20035;-34
2022/10/29 04:30:51;;;;;;;5.35;3.15;;;;;;;23.40;42.56;97716.09;5136291;27;20037;-34
2022/10/29 04:33:17;;;;;;;8.48;3.55;;;;;;;23.43;42.47;97717.91;5155425;27;20029;-36
2022/10/29 04:35:43;;;;;;;4.63;2.90;;;;;;;23.43;41.97;97704.84;5154985;27;20359;-35
2022/10/29 04:38:09;;;;;;;6.20;3.17;;;;;;;23.33;42.08;97716.50;5155173;27;20427;-35
2022/10/29 04:40:35;;;;;;;5.13;2.75;;;;;;;23.36;41.76;97710.03;5155095;27;20070;-34
2022/10/29 04:43:00;;;;;;;5.93;3.45;;;;;;;23.38;41.72;97713.03;5154875;27;20060;-35
2022/10/29 04:45:26;;;;;;;3.83;2.50;;;;;;;23.45;41.69;97718.19;5154793;27;20451;-34
2022/10/29 04:48:02;;;;;;;3.83;2.67;;;;;;;23.36;41.28;97718.31;5154799;27;20026;-34
2022/10/29 04:50:29;;;;;;;4.57;2.70;;;;;;;23.38;41.42;97718.59;5155071;27;20022;-35
2022/10/29 04:53:01;;;;;;;6.90;3.10;;;;;;;23.38;41.48;97716.59;5154720;27;20038;-35
2022/10/29 04:55:27;;;;;;;;;;;;;;;23.43;41.53;97710.38;5154989;27;20050;-35
2022/10/29 04:57:53;;;;;;;4.43;3.10;;;;;;;23.35;41.23;97717.56;5154660;27;20001;-35
2022/10/29 05:00:19;;;;;;;4.22;2.90;;;;;;;23.32;41.44;97701.91;5154650;27;20033;-35
2022/10/29 05:02:49;;;;;;;3.30;2.40;;;;;;;23.32;41.39;97712.22;5154986;27;20027;-34
2022/10/29 05:05:16;;;;;;;4.43;2.88;;;;;;;23.36;41.27;97705.25;5138388;27;20038;-34
2022/10/29 05:07:41;;;;;;;6.82;3.25;;;;;;;23.31;40.72;97708.69;5158585;27;20037;-34
2022/10/29 05:10:07;;;;;;;7.38;2.88;;;;;;;23.26;41.69;97712.13;5158574;27;20023;-34
2022/10/29 05:12:33;;;;;;;5.03;2.80;;;;;;;23.32;41.59;97723.28;5158549;27;20091;-34
2022/10/29 05:14:58;;;;;;;4.22;2.45;;;;;;;23.28;41.53;97712.41;5158592;27;20097;-34
2022/10/29 05:17:23;;;;;;;5.07;2.92;;;;;;;23.32;41.29;97720.53;5158484;27;20158;-34
2022/10/29 05:19:49;;;;;;;5.93;2.67;;;;;;;23.29;40.68;97717.47;5151509;27;20023;-36
2022/10/29 05:22:14;;;;;;;6.55;2.60;;;;;;;23.33;41.09;97711.75;5139670;27;20034;-34
2022/10/29 05:24:40;;;;;;;6.78;3.25;;;;;;;23.24;41.13;97709.84;5137888;27;20031;-35
2022/10/29 05:27:06;;;;;;;4.22;2.70;;;;;;;23.32;41.08;97709.44;5156406;27;20466;-36
2022/10/29 05:29:31;;;;;;;4.93;2.50;;;;;;;23.28;40.53;97715.94;5156301;27;20019;-35
2022/10/29 05:31:57;;;;;;;4.68;3.25;;;;;;;23.26;41.09;97717.66;5156080;27;20042;-35
2022/10/29 05:34:22;;;;;;;5.93;3.10;;;;;;;23.27;41.31;97714.41;5156082;27;20019;-34
2022/10/29 05:36:48;;;;;;;4.72;2.92;;;;;;;23.30;40.43;97718.22;5154138;27;20493;-37
2022/10/29 05:39:14;;;;;;;6.07;2.88;;;;;;;23.26;40.97;97718.41;5135369;27;20019;-35
2022/10/29 05:41:39;;;;;;;6.78;3.08;;;;;;;23.29;40.50;97720.25;5135247;27;20094;-35
2022/10/29 05:44:05;;;;;;;6.13;2.55;;;;;;;23.24;40.60;97720.16;5134932;27;20493;-34
2022/10/29 05:46:30;;;;;;;6.20;2.65;;;;;;;23.25;40.18;97721.66;5126015;27;20549;-36
2022/10/29 05:48:56;;;;;;;4.45;2.53;;;;;;;23.31;40.30;97721.75;5120338;27;20502;-34
2022/10/29 05:51:21;;;;;;;4.50;2.33;;;;;;;23.25;40.15;97727.97;5103221;27;20297;-34
2022/10/29 05:53:47;;;;;;;5.25;2.38;;;;;;;23.23;40.50;97724.19;5120206;27;20167;-34
2022/10/29 05:56:12;;;;;;;3.45;2.70;;;;;;;23.28;40.27;97727.00;5119760;27;20434;-36
2022/10/29 05:58:38;;;;;;;3.08;2.20;;;;;;;23.26;39.84;97717.66;5120617;27;20091;-34
2022/10/29 06:01:10;;;;;;;4.63;3.03;;;;;;;23.31;39.68;97724.53;5120184;27;20034;-35
2022/10/29 06:03:37;;;;;;;2.70;2.42;;;;;;;23.24;40.49;97723.66;5126602;27;20030;-34
2022/10/29 06:06:02;;;;;;;4.47;2.22;;;;;;;23.22;40.34;97723.41;5134848;27;20486;-34
2022/10/29 06:08:28;;;;;;;3.75;2.00;;;;;;;23.21;40.06;97724.66;5134579;27;20038;-34
2022/10/29 06:10:53;;;;;;;4.40;2.40;;;;;;;23.21;39.93;97721.88;5134486;27;20091;-34
2022/10/29 06:13:20;;;;;;;3.72;2.30;;;;;;;23.21;40.06;97721.88;5117831;27;20114;-34
2022/10/29 06:15:47;;;;;;;5.18;2.60;;;;;;;23.25;39.50;97716.91;5153610;27;20377;-36
2022/10/29 06:18:12;;;;;;;4.32;2.30;;;;;;;23.33;40.00;97733.13;5155007;27;20050;-34
2022/10/29 06:20:38;;;;;;;4.70;2.28;;;;;;;23.19;39.64;97724.38;5155175;27;20046;-34
2022/10/29 06:23:05;;;;;;;3.70;2.35;;;;;;;23.31;39.98;97730.06;5155292;27;20030;-34
2022/10/29 06:25:30;;;;;;;5.05;2.72;;;;;;;23.31;39.47;97730.06;5155292;27;20051;-34
2022/10/29 06:28:07;;;;;;;4.00;2.15;;;;;;;23.24;39.62;97726.44;5155090;27;20582;-34
2022/10/29 06:30:34;;;;;;;3.53;2.40;;;;;;;23.19;39.85;97724.38;5154725;27;20034;-34
2022/10/29 06:33:01;;;;;;;4.90;2.33;;;;;;;23.22;39.61;97730.94;5155032;27;20023;-34
2022/10/29 06:35:27;;;;;;;6.55;2.65;;;;;;;23.20;40.03;97731.44;5154868;27;20023;-37
2022/10/29 06:37:53;;;;;;;3.72;2.38;;;;;;;23.26;39.63;97731.50;5154681;27;20027;-35
2022/10/29 06:40:18;;;;;;;3.38;2.40;;;;;;;23.21;39.86;97730.19;5154961;27;20031;-35
2022/10/29 06:42:43;;;;;;;3.97;2.08;;;;;;;23.20;39.77;97739.72;5154688;27;20465;-34
2022/10/29 06:45:10;;;;;;;4.90;2.60;;;;;;;23.21;39.63;97740.50;5154765;27;20029;-35
2022/10/29 06:47:40;;;;;;;3.22;2.50;;;;;;;23.21;39.46;97741.25;5154751;27;20065;-34
2022/10/29 06:50:06;;;;;;;2.72;2.05;;;;;;;23.20;39.75;97742.50;5154684;27;20060;-34
2022/10/29 06:52:32;;;;;;;3.45;2.40;;;;;;;23.19;39.93;97745.75;5154531;27;20112;-35
2022/10/29 06:54:57;;;;;;;5.25;2.40;;;;;;;23.24;40.17;97756.16;5135385;27;20050;-34
2022/10/29 06:57:23;;;;;;;4.90;2.17;;;;;;;23.21;39.73;97757.09;5154466;27;20091;-34
2022/10/29 06:59:49;;;;;;;4.07;1.90;;;;;;;23.24;39.19;97761.69;5154407;27;20034;-34
2022/10/29 07:02:17;;;;;;;4.97;2.22;;;;;;;23.21;39.63;97752.31;5154411;27;20030;-34
2022/10/29 07:04:43;;;;;;;3.80;2.25;;;;;;;23.22;39.45;97744.78;5154443;27;20501;-34
2022/10/29 07:07:08;;;;;;;4.90;2.47;;;;;;;23.22;39.83;97748.31;5154161;27;20348;-34
2022/10/29 07:09:35;;;;;;;5.68;2.40;;;;;;;23.22;39.87;97756.63;5154016;27;20079;-34
2022/10/29 07:12:00;;;;;;;2.80;2.15;;;;;;;23.23;40.17;97760.16;5154084;27;20019;-35
2022/10/29 07:14:26;;;;;;;3.95;2.75;;;;;;;22.44;40.46;97771.03;5156249;27;20027;-33
2022/10/29 07:16:52;;;;;;;12.38;4.00;;;;;;;22.15;40.03;97771.69;5156123;27;20019;-33
2022/10/29 07:19:17;;;;;;;7.80;3.60;;;;;;;22.45;39.79;97767.78;5156064;27;20104;-35
2022/10/29 07:21:42;;;;;;;7.90;3.75;;;;;;;22.74;39.71;97763.56;5156080;27;20029;-33
2022/10/29 07:24:08;;;;;;;7.75;3.25;;;;;;;22.89;39.43;97764.34;5155895;27;20051;-35
2022/10/29 07:26:34;;;;;;;9.13;3.15;;;;;;;22.77;39.82;97768.91;5155871;27;20049;-34
2022/10/29 07:29:00;;;;;;;5.63;3.13;;;;;;;22.83;39.57;97774.56;5155914;27;20033;-34
2022/10/29 07:31:25;;;;;;;6.57;3.15;;;;;;;22.88;39.65;97776.66;5156097;27;20023;-33
2022/10/29 07:33:52;;;;;;;5.45;2.72;;;;;;;22.87;39.69;97775.88;5155849;27;20481;-35
2022/10/29 07:36:17;;;;;;;6.22;2.70;;;;;;;22.82;39.84;97773.78;5155649;27;20115;-34
2022/10/29 07:38:43;;;;;;;7.28;3.42;;;;;;;23.01;39.69;97779.13;5155980;27;20102;-33
2022/10/29 07:41:08;;;;;;;5.47;2.88;;;;;;;23.00;39.82;97772.84;5155746;27;20360;-33
2022/10/29 07:43:34;;;;;;;6.32;3.05;;;;;;;22.97;39.93;97781.34;5155790;27;20023;-34
2022/10/29 07:45:59;;;;;;;8.38;2.55;;;;;;;22.90;40.23;97780.47;5155572;27;20036;-33
2022/10/29 07:48:25;;;;;;;6.80;2.80;;;;;;;22.98;40.32;97780.09;5155557;27;20025;-33
2022/10/29 07:50:50;;;;;;;5.80;2.72;;;;;;;22.95;40.43;97778.28;5155756;27;20029;-34
2022/10/29 07:53:16;;;;;;;10.10;3.13;;;;;;;22.97;40.47;97779.34;5154715;27;20360;-33
2022/10/29 07:55:41;;;;;;;8.32;2.90;;;;;;;22.95;40.41;97772.75;5154755;27;20368;-33
2022/10/29 07:58:10;;;;;;;6.22;3.15;;;;;;;23.06;40.13;97782.00;5155447;27;20138;-34
2022/10/29 08:00:38;;;;;;;5.07;2.78;;;;;;;23.00;40.51;97783.91;5155356;27;20019;-35
2022/10/29 08:03:04;;;;;;;5.30;2.80;;;;;;;22.98;41.02;97775.34;5155482;27;20029;-34
2022/10/29 08:05:30;;;;;;;5.28;3.05;;;;;;;23.06;40.79;97776.47;5155504;27;20466;-34
2022/10/29 08:07:56;;;;;;;5.35;2.80;;;;;;;23.09;40.67;97774.75;5155079;27;20029;-34
2022/10/29 08:10:23;;;;;;;4.63;2.90;;;;;;;23.09;40.83;97770.00;5155386;27;20462;-33
2022/10/29 08:13:00;;;;;;;5.20;2.60;;;;;;;23.12;40.59;97780.09;5155052;27;20066;-34
2022/10/29 08:15:27;;;;;;;4.45;2.85;;;;;;;23.07;40.67;97775.22;5155170;27;20118;-36
2022/10/29 08:17:53;;;;;;;5.88;2.15;;;;;;;23.13;40.63;97781.59;5155096;27;20034;-33
2022/10/29 08:20:19;;;;;;;6.40;2.45;;;;;;;23.03;41.15;97773.88;5155320;27;20460;-37
2022/10/29 08:22:45;;;;;;;4.18;2.58;;;;;;;23.14;40.96;97776.84;5154988;27;20033;-36
2022/10/29 08:25:11;;;;;;;4.82;2.65;;;;;;;23.19;40.96;97776.19;5155098;27;20023;-36
2022/10/29 08:27:37;;;;;;;3.80;2.28;;;;;;;23.12;41.20;97774.53;5154995;27;20026;-36
2022/10/29 08:30:08;;;;;;;6.07;2.75;;;;;;;23.13;41.06;97778.84;5154997;27;20042;-35
2022/10/29 08:32:34;;;;;;;5.97;2.80;;;;;;;23.06;41.57;97773.69;5155043;27;20019;-33
2022/10/29 08:35:00;;;;;;;5.35;2.63;;;;;;;23.13;40.86;97767.78;5155207;27;20033;-33
2022/10/29 08:37:26;;;;;;;5.97;2.40;;;;;;;23.14;41.42;97771.31;5154965;27;20034;-35
2022/10/29 08:39:51;;;;;;;5.78;2.30;;;;;;;23.19;41.45;97774.19;5156424;27;20022;-33
2022/10/29 08:42:37;;;;;;;3.38;2.45;;;;;;;23.19;41.73;97763.09;5159055;27;20019;-33
2022/10/29 08:45:22;;;;;;;4.03;2.28;;;;;;;23.18;42.07;97761.59;5159170;27;20378;-34
2022/10/29 08:48:25;;;;;;;3.95;2.80;;;;;;;23.10;42.25;97768.75;5159043;27;20019;-33
2022/10/29 08:51:32;;;;;;;6.10;2.92;;;;;;;23.07;42.55;97769.69;5054621;28;20041;-34
2022/10/29 08:53:58;;;;;;;6.50;3.00;;;;;;;22.99;43.44;97774.09;5036322;28;20573;-34
2022/10/29 08:56:35;;;;;;;4.93;2.72;;;;;;;23.06;42.73;97770.94;5055058;28;20041;-36
2022/10/29 08:59:32;;;;;;;4.03;2.60;;;;;;;23.10;42.85;97771.53;5054809;28;20045;-33
2022/10/29 09:01:57;;;;;;;5.78;2.70;;;;;;;23.06;43.09;97776.47;5053966;28;20041;-33
2022/10/29 09:04:33;;;;;;;5.60;2.63;;;;;;;23.05;43.36;97774.94;5054796;28;20033;-34
2022/10/29 09:07:22;;;;;;;5.82;2.55;;;;;;;23.09;43.22;97780.28;5037952;28;20105;-37
2022/10/29 09:10:10;;;;;;;5.85;2.80;;;;;;;22.91;44.06;97776.47;5054882;28;20040;-33
2022/10/29 09:12:47;;;;;;;6.50;2.83;;;;;;;23.07;43.64;97775.22;5052067;28;20093;-33
2022/10/29 09:15:24;;;;;;;4.90;2.70;;;;;;;22.98;43.71;97778.09;5053708;28;20033;-33
2022/10/29 09:17:59;;;;;;;5.93;2.88;;;;;;;22.82;43.81;97773.03;5054550;28;20029;-35
2022/10/29 09:20:35;;;;;;;8.82;3.30;;;;;;;23.09;43.64;97772.00;5054781;27;20032;-33
2022/10/29 09:23:11;;;;;;;5.43;2.42;;;;;;;23.18;43.35;97767.13;5158355;27;20033;-34
2022/10/29 09:26:00;;;;;;;6.15;3.00;;;;;;;23.05;43.79;97777.72;5158341;27;20019;-33
2022/10/29 09:28:40;;;;;;;6.72;2.75;;;;;;;23.10;43.74;97779.06;5158230;27;20027;-34
2022/10/29 09:31:16;;;;;;;4.85;2.72;;;;;;;23.19;43.64;97776.19;5158108;27;20022;-33
2022/10/29 09:33:45;;;;;;;4.90;2.47;;;;;;;23.22;43.50;97773.22;5158550;27;20509;-33
2022/10/29 09:36:17;;;;;;;4.20;2.75;;;;;;;23.31;43.15;97766.81;5158196;27;20105;-33
2022/10/29 09:39:27;;;;;;;6.18;2.97;;;;;;;23.29;43.32;97761.75;5158465;27;20019;-34
2022/10/29 09:41:53;;;;;;;3.53;2.65;;;;;;;23.29;43.00;97764.53;5053779;28;20033;-33
2022/10/29 09:44:23;;;;;;;3.28;2.58;;;;;;;23.35;43.53;97763.88;5053782;28;20040;-33
2022/10/29 09:47:00;;;;;;;4.32;2.65;;;;;;;23.30;43.36;97768.06;5053901;28;20055;-34
2022/10/29 09:49:31;;;;;;;5.47;2.83;;;;;;;23.20;43.87;97764.63;5053766;28;20112;-34
2022/10/29 09:52:00;;;;;;;4.70;2.60;;;;;;;23.33;43.06;97766.34;5052713;28;20474;-35
2022/10/29 09:54:29;;;;;;;4.60;2.90;;;;;;;23.31;43.09;97771.59;5053385;28;20061;-34
2022/10/29 09:56:57;;;;;;;5.97;3.08;;;;;;;23.36;42.77;97770.94;5053628;28;20033;-33
2022/10/29 09:59:41;;;;;;;4.00;2.60;;;;;;;23.38;43.02;97760.88;5053760;28;20509;-33
2022/10/29 10:02:25;;;;;;;6.82;2.85;;;;;;;23.36;42.58;97765.38;5053903;28;20044;-33
2022/10/29 10:04:55;;;;;;;6.07;2.85;;;;;;;23.32;43.13;97762.81;5053834;28;20116;-34
2022/10/29 10:07:21;;;;;;;4.93;2.63;;;;;;;23.37;42.95;97766.91;5053593;28;20082;-33
2022/10/29 10:09:46;;;;;;;3.53;2.45;;;;;;;23.37;42.79;97766.91;5053460;28;20052;-36
2022/10/29 10:12:12;;;;;;;3.40;2.60;;;;;;;23.35;43.10;97766.63;5036694;28;20114;-34
2022/10/29 10:14:38;;;;;;;5.05;2.55;;;;;;;23.38;42.89;97752.56;5059999;27;20381;-34
2022/10/29 10:17:03;;;;;;;3.78;2.70;;;;;;;23.35;43.25;97755.56;5157660;27;20027;-35
2022/10/29 10:19:31;;;;;;;3.85;2.40;;;;;;;23.40;42.95;97754.88;5157336;27;20379;-34
2022/10/29 10:22:01;;;;;;;4.72;2.42;;;;;;;23.41;42.81;97753.63;5157423;27;20062;-33
2022/10/29 10:24:37;;;;;;;5.57;2.53;;;;;;;23.41;43.02;97748.84;5157572;27;20026;-33
2022/10/29 10:27:17;;;;;;;4.05;2.60;;;;;;;23.40;42.75;97738.25;5157096;27;20034;-34
2022/10/29 10:30:16;;;;;;;5.57;2.78;;;;;;;23.40;42.83;97741.78;5157072;27;20026;-33
2022/10/29 10:32:42;;;;;;;5.13;2.92;;;;;;;23.38;42.96;97741.50;5100936;27;20062;-34
2022/10/29 10:35:29;;;;;;;2.88;2.47;;;;;;;23.42;42.85;97744.06;5156308;27;20093;-33
2022/10/29 10:37:55;;;;;;;4.20;2.53;;;;;;;23.43;42.92;97740.06;5157056;27;20018;-34
2022/10/29 10:40:23;;;;;;;7.43;2.70;;;;;;;23.41;42.95;97735.00;5156976;27;20394;-35
2022/10/29 10:42:53;;;;;;;5.40;3.25;;;;;;;23.51;44.15;97732.91;5156771;27;20044;-33
2022/10/29 10:45:29;;;;;;;7.88;3.28;;;;;;;24.05;41.82;97728.59;5156833;27;20105;-33
2022/10/29 10:47:57;;;;;;;7.32;3.10;;;;;;;24.52;41.10;97734.97;5156628;27;20015;-33
2022/10/29 10:50:32;;;;;;;7.03;3.42;;;;;;;24.81;40.64;97729.22;5156605;27;20018;-33
2022/10/29 10:53:03;;;;;;;5.80;3.28;;;;;;;24.70;40.37;97724.31;5156638;27;20360;-34
2022/10/29 10:55:36;;;;;;;5.13;3.20;;;;;;;25.08;40.17;97722.41;5156421;27;20406;-33
2022/10/29 10:58:08;;;;;;;5.22;2.97;;;;;;;25.25;40.09;97728.84;5156558;27;20018;-33
2022/10/29 11:00:42;;;;;;;6.45;3.15;;;;;;;25.36;39.87;97717.81;5156490;27;20034;-33
2022/10/29 11:03:08;;;;;;;4.68;3.00;;;;;;;25.36;39.75;97715.03;5155954;27;20058;-33
2022/10/29 11:05:45;;;;;;;5.50;3.70;;;;;;;25.47;39.57;97711.56;5156570;27;20029;-34
2022/10/29 11:08:30;;;;;;;6.60;3.08;;;;;;;25.35;39.58;97710.72;5156355;27;20035;-33
2022/10/29 11:11:05;;;;;;;5.03;3.20;;;;;;;25.44;39.56;97709.78;5151878;27;20030;-33
2022/10/29 11:13:33;;;;;;;6.65;3.17;;;;;;;25.38;39.90;97712.53;5154132;27;20043;-33
2022/10/29 11:16:15;;;;;;;7.07;3.03;;;;;;;25.52;39.37;97704.53;5153802;27;20549;-33
2022/10/29 11:18:48;;;;;;;4.70;2.80;;;;;;;25.34;39.66;97697.38;5153940;27;20081;-34
2022/10/29 11:21:22;;;;;;;5.45;2.97;;;;;;;25.38;39.78;97704.19;5153999;27;20054;-33
2022/10/29 11:24:13;;;;;;;7.00;2.80;;;;;;;25.40;39.95;97698.91;5153782;27;20031;-34
2022/10/29 11:26:54;;;;;;;5.90;2.60;;;;;;;25.35;39.92;97698.84;5149113;27;20087;-33
2022/10/29 11:29:25;;;;;;;5.40;2.58;;;;;;;25.33;40.27;97696.59;5154151;27;20463;-33
2022/10/29 11:32:06;;;;;;;3.67;2.80;;;;;;;25.39;40.15;97694.59;5153845;27;20026;-34
2022/10/29 11:34:56;;;;;;;6.85;2.90;;;;;;;25.34;39.98;97692.56;5153750;27;20114;-33
2022/10/29 11:37:56;;;;;;;5.18;2.90;;;;;;;25.35;40.26;97684.97;5153582;27;20030;-37
2022/10/29 11:41:03;;;;;;;6.93;2.75;;;;;;;25.20;40.21;97693.47;5153832;27;20033;-34
2022/10/29 11:43:30;;;;;;;5.47;2.72;;;;;;;25.28;40.36;97686.22;5153408;27;20026;-33
2022/10/29 11:46:29;;;;;;;4.78;3.13;;;;;;;25.29;40.45;97679.41;5136918;27;20022;-33
2022/10/29 11:49:15;;;;;;;5.93;2.80;;;;;;;25.29;40.42;97679.41;5155433;27;20478;-34